Time;durP1;ratioP1;P1;durP2;ratioP2;P2;SDS_P1;SDS_P2;PMS_P1;PMS_P2;Temp;Humidity;BMP_temperature;BMP_pressure;BME280_temperature;BME280_humidity;BME280_pressure;Samples;Min_cycle;Max_cycle;Signal;HPM_P1;HPM_P2
2024/02/08 00:00:27;;;;;;;5.00;1.55;;;5.70;99.90;;;;;;5104804;28;20035;-45
2024/02/08 00:02:53;;;;;;;3.22;1.50;;;5.60;99.90;;;;;;5104623;28;20061;-48
2024/02/08 00:05:19;;;;;;;4.82;1.35;;;5.60;99.90;;;;;;5107462;28;20025;-46
2024/02/08 00:07:44;;;;;;;3.33;1.35;;;5.60;99.90;;;;;;5108498;28;20039;-45
2024/02/08 00:10:10;;;;;;;3.72;1.35;;;5.60;99.90;;;;;;5108562;28;20077;-46
2024/02/08 00:12:38;;;;;;;4.90;1.50;;;5.60;99.90;;;;;;5108518;28;20109;-46
2024/02/08 00:15:05;;;;;;;4.60;1.50;;;5.60;99.90;;;;;;5107440;28;20155;-48
2024/02/08 00:17:31;;;;;;;5.72;1.38;;;5.60;99.90;;;;;;5108034;28;20188;-48
2024/02/08 00:19:56;;;;;;;7.93;1.50;;;5.60;99.90;;;;;;5108398;28;20024;-47
2024/02/08 00:22:22;;;;;;;4.47;1.52;;;5.50;99.90;;;;;;5107776;28;20036;-46
2024/02/08 00:24:47;;;;;;;3.83;1.48;;;5.50;99.90;;;;;;5108355;28;20024;-47
2024/02/08 00:27:18;;;;;;;4.55;1.33;;;5.50;99.90;;;;;;5108275;28;20094;-47
2024/02/08 00:29:43;;;;;;;5.32;1.50;;;5.50;99.90;;;;;;5108159;28;20243;-45
2024/02/08 00:32:09;;;;;;;5.30;1.70;;;5.50;99.90;;;;;;5108188;28;20031;-48
2024/02/08 00:34:35;;;;;;;5.20;1.40;;;5.40;99.90;;;;;;5108145;28;20088;-47
2024/02/08 00:37:00;;;;;;;4.53;1.20;;;5.50;99.90;;;;;;5108108;28;20032;-49
2024/02/08 00:39:26;;;;;;;4.30;1.73;;;5.50;99.90;;;;;;5108149;28;20054;-46
2024/02/08 00:41:56;;;;;;;3.75;1.27;;;5.40;99.90;;;;;;5107874;28;20227;-45
2024/02/08 00:44:26;;;;;;;3.22;1.40;;;5.40;99.90;;;;;;5107954;28;20031;-45
2024/02/08 00:46:51;;;;;;;;;;;5.40;99.90;;;;;;5108021;28;20095;-45
2024/02/08 00:49:17;;;;;;;6.07;1.77;;;5.40;99.90;;;;;;5107573;28;20035;-46
2024/02/08 00:51:43;;;;;;;6.45;1.70;;;5.50;99.90;;;;;;5107635;28;20032;-46
2024/02/08 00:54:09;;;;;;;5.50;1.60;;;5.50;99.90;;;;;;5107760;28;20035;-46
2024/02/08 00:56:34;;;;;;;6.07;1.73;;;5.60;99.90;;;;;;5107187;28;20032;-45
2024/02/08 00:59:00;;;;;;;6.97;2.00;;;5.60;99.90;;;;;;5106681;28;20024;-46
2024/02/08 01:01:26;;;;;;;7.22;2.10;;;5.50;99.90;;;;;;5107569;28;20030;-46
2024/02/08 01:03:51;;;;;;;8.25;2.10;;;5.60;99.90;;;;;;5107465;28;20078;-46
2024/02/08 01:06:17;;;;;;;7.72;3.15;;;5.60;99.90;;;;;;5107453;28;20100;-45
2024/02/08 01:08:43;;;;;;;7.60;2.63;;;5.60;99.90;;;;;;5107365;28;20034;-47
2024/02/08 01:11:08;;;;;;;7.68;3.00;;;5.60;99.90;;;;;;5106050;28;20051;-47
2024/02/08 01:13:34;;;;;;;6.38;2.78;;;5.60;99.90;;;;;;5107163;28;20024;-49
2024/02/08 01:16:00;;;;;;;7.25;2.85;;;5.50;99.90;;;;;;5107227;28;20028;-48
2024/02/08 01:18:26;;;;;;;12.07;4.05;;;5.60;99.90;;;;;;5107037;28;20048;-48
2024/02/08 01:20:51;;;;;;;9.98;3.22;;;5.50;99.90;;;;;;5106922;28;20039;-48
2024/02/08 01:23:22;;;;;;;13.43;3.55;;;5.50;99.90;;;;;;5107273;28;20075;-46
2024/02/08 01:25:48;;;;;;;8.75;4.05;;;5.60;99.90;;;;;;5106734;28;20047;-49
2024/02/08 01:28:14;;;;;;;12.43;4.32;;;5.50;99.90;;;;;;5106628;28;20186;-48
2024/02/08 01:30:39;;;;;;;13.70;6.22;;;5.60;99.90;;;;;;5106989;28;20035;-47
2024/02/08 01:33:11;;;;;;;11.32;4.45;;;5.60;99.90;;;;;;5106928;28;20080;-47
2024/02/08 01:35:40;;;;;;;11.13;5.60;;;5.60;99.90;;;;;;5106876;28;20032;-48
2024/02/08 01:38:09;;;;;;;13.15;5.30;;;5.50;99.90;;;;;;5106857;28;20027;-48
2024/02/08 01:40:35;;;;;;;12.65;5.25;;;5.50;99.90;;;;;;5106836;28;20095;-46
2024/02/08 01:43:00;;;;;;;11.77;5.15;;;5.60;99.90;;;;;;5105633;28;20031;-46
2024/02/08 01:45:30;;;;;;;13.73;5.22;;;5.50;99.90;;;;;;5106664;28;20032;-48
2024/02/08 01:48:01;;;;;;;18.60;6.00;;;5.50;99.90;;;;;;5105811;28;20050;-45
2024/02/08 01:50:26;;;;;;;12.05;5.60;;;5.50;99.90;;;;;;5106710;28;20032;-46
2024/02/08 01:52:53;;;;;;;14.43;5.25;;;5.50;99.90;;;;;;5106471;28;20186;-49
2024/02/08 01:55:21;;;;;;;16.42;5.28;;;5.60;99.90;;;;;;5105407;28;20028;-48
2024/02/08 01:57:46;;;;;;;13.02;5.63;;;5.60;99.90;;;;;;5105211;28;20024;-49
2024/02/08 02:00:12;;;;;;;11.93;6.07;;;5.60;99.90;;;;;;5105116;28;20304;-48
2024/02/08 02:02:41;;;;;;;14.35;6.18;;;5.60;99.90;;;;;;5105344;28;20247;-48
2024/02/08 02:05:07;;;;;;;20.20;6.50;;;5.60;99.90;;;;;;5106394;28;20046;-48
2024/02/08 02:07:35;;;;;;;14.25;6.32;;;5.60;99.90;;;;;;5106132;28;20036;-49
2024/02/08 02:10:01;;;;;;;20.77;6.68;;;5.60;99.90;;;;;;5106298;28;20016;-47
2024/02/08 02:12:30;;;;;;;13.20;5.25;;;5.60;99.90;;;;;;5106187;28;20039;-49
2024/02/08 02:14:57;;;;;;;15.50;6.32;;;5.60;99.90;;;;;;5105354;28;20028;-47
2024/02/08 02:17:26;;;;;;;14.77;6.30;;;5.60;99.90;;;;;;5105059;28;20271;-49
2024/02/08 02:20:05;;;;;;;14.83;5.93;;;5.60;99.90;;;;;;5105998;28;20032;-48
2024/02/08 02:22:31;;;;;;;17.33;6.38;;;5.70;99.90;;;;;;5106027;28;20031;-47
2024/02/08 02:24:57;;;;;;;18.23;6.38;;;5.60;99.90;;;;;;5105660;28;20035;-48
2024/02/08 02:27:23;;;;;;;18.50;7.22;;;5.60;99.90;;;;;;5105435;28;20095;-48
2024/02/08 02:29:54;;;;;;;21.50;6.30;;;5.70;99.90;;;;;;5105355;28;20080;-49
2024/02/08 02:32:21;;;;;;;16.35;6.25;;;5.60;99.90;;;;;;5104839;28;20067;-47
2024/02/08 02:34:50;;;;;;;16.83;7.18;;;5.70;99.90;;;;;;5104807;28;20028;-45
2024/02/08 02:37:16;;;;;;;16.65;6.80;;;5.70;99.90;;;;;;5106010;28;20028;-45
2024/02/08 02:39:42;;;;;;;14.55;6.65;;;5.70;99.90;;;;;;5105700;28;20038;-45
2024/02/08 02:42:08;;;;;;;13.50;6.18;;;5.70;99.90;;;;;;5105706;28;20028;-45
2024/02/08 02:44:34;;;;;;;20.95;6.97;;;5.70;99.90;;;;;;5104560;28;20024;-48
2024/02/08 02:47:03;;;;;;;13.90;7.10;;;5.60;99.90;;;;;;5105138;28;20269;-49
2024/02/08 02:49:29;;;;;;;15.43;6.63;;;5.60;99.90;;;;;;5105294;28;20036;-49
2024/02/08 02:51:56;;;;;;;18.05;7.72;;;5.60;99.90;;;;;;5104436;28;20054;-48
2024/02/08 02:54:22;;;;;;;18.02;6.45;;;5.50;99.90;;;;;;5105418;28;20056;-48
2024/02/08 02:56:48;;;;;;;21.13;6.70;;;5.60;99.90;;;;;;5105021;28;20032;-48
2024/02/08 02:59:17;;;;;;;14.55;6.55;;;5.60;99.90;;;;;;5104517;28;20024;-48
2024/02/08 03:01:55;;;;;;;14.25;5.88;;;5.70;99.90;;;;;;5104947;28;20289;-47
2024/02/08 03:04:21;;;;;;;15.27;7.10;;;5.70;99.90;;;;;;5105418;28;20031;-46
2024/02/08 03:06:48;;;;;;;16.17;6.65;;;5.70;99.90;;;;;;5105240;28;20036;-47
2024/02/08 03:09:17;;;;;;;14.75;7.43;;;5.70;99.90;;;;;;5105261;28;20032;-49
2024/02/08 03:11:44;;;;;;;21.05;8.48;;;5.70;99.90;;;;;;5105153;28;20102;-49
2024/02/08 03:14:10;;;;;;;17.25;6.97;;;5.70;99.90;;;;;;5104229;28;20028;-48
2024/02/08 03:16:36;;;;;;;15.23;6.97;;;5.70;99.90;;;;;;5105206;28;20082;-47
2024/02/08 03:19:05;;;;;;;16.70;7.10;;;5.70;99.90;;;;;;5105013;28;20016;-48
2024/02/08 03:21:35;;;;;;;20.17;7.45;;;5.70;99.90;;;;;;5105166;28;20095;-48
2024/02/08 03:24:07;;;;;;;16.05;7.20;;;5.80;99.90;;;;;;5105221;28;20096;-48
2024/02/08 03:26:45;;;;;;;16.25;6.70;;;5.80;99.90;;;;;;5104235;28;20036;-46
2024/02/08 03:29:11;;;;;;;13.95;6.28;;;5.80;99.90;;;;;;5104195;28;20066;-45
2024/02/08 03:31:45;;;;;;;25.73;8.23;;;5.80;99.90;;;;;;5105042;28;20043;-46
2024/02/08 03:34:23;;;;;;;15.20;6.72;;;5.80;99.90;;;;;;5104733;28;20038;-47
2024/02/08 03:36:49;;;;;;;16.45;7.15;;;5.90;99.90;;;;;;5105045;28;20100;-48
2024/02/08 03:39:27;;;;;;;15.63;6.85;;;5.90;99.90;;;;;;5108478;28;20115;-48
2024/02/08 03:42:00;;;;;;;18.33;6.35;;;6.00;99.90;;;;;;5109490;28;20162;-49
2024/02/08 03:44:26;;;;;;;12.63;5.80;;;6.00;99.90;;;;;;5109312;28;20031;-45
2024/02/08 03:46:53;;;;;;;16.33;6.15;;;6.00;99.90;;;;;;5108951;28;20091;-46
2024/02/08 03:49:20;;;;;;;12.80;6.07;;;6.10;99.90;;;;;;5108568;28;20036;-46
2024/02/08 03:51:49;;;;;;;11.90;5.20;;;6.10;99.90;;;;;;5108593;28;20180;-45
2024/02/08 03:54:18;;;;;;;14.80;5.55;;;6.10;99.90;;;;;;5108961;28;20024;-47
2024/02/08 03:56:49;;;;;;;10.07;5.32;;;6.10;99.90;;;;;;5108652;28;20028;-47
2024/02/08 03:59:26;;;;;;;14.88;5.85;;;6.00;99.90;;;;;;5108746;28;20042;-46
2024/02/08 04:02:03;;;;;;;15.77;5.93;;;6.00;99.90;;;;;;5108820;28;20024;-47
2024/02/08 04:04:59;;;;;;;12.43;5.78;;;6.00;99.90;;;;;;5108683;28;20282;-48
2024/02/08 04:07:45;;;;;;;12.98;6.80;;;6.00;99.90;;;;;;5108527;28;20043;-48
2024/02/08 04:10:29;;;;;;;16.13;6.03;;;6.00;99.90;;;;;;5108782;28;20032;-48
2024/02/08 04:53:58;;;;;;;15.02;8.40;;;6.00;99.90;;;;;;5107859;28;20054;-46
2024/02/08 04:56:24;;;;;;;17.38;9.13;;;6.00;99.90;;;;;;5107816;28;20274;-48
2024/02/08 04:58:50;;;;;;;19.60;7.97;;;6.00;99.90;;;;;;5107566;28;20037;-47
2024/02/08 05:01:17;;;;;;;17.90;8.73;;;5.90;99.90;;;;;;5107577;28;20020;-48
2024/02/08 05:03:43;;;;;;;15.10;7.53;;;5.80;99.90;;;;;;5107494;28;20096;-49
2024/02/08 05:06:15;;;;;;;16.63;8.38;;;5.70;99.90;;;;;;5107541;28;20281;-46
2024/02/08 05:08:41;;;;;;;15.35;8.38;;;5.70;99.90;;;;;;5107163;28;20028;-46
2024/02/08 05:11:11;;;;;;;15.23;8.43;;;5.70;99.90;;;;;;5106447;28;20032;-47
2024/02/08 05:13:50;;;;;;;23.70;8.75;;;5.60;99.90;;;;;;5107245;28;20317;-45
2024/02/08 05:16:19;;;;;;;15.00;7.83;;;5.60;99.90;;;;;;5107206;28;20113;-46
2024/02/08 05:18:46;;;;;;;18.25;8.48;;;5.50;99.90;;;;;;5106001;28;20046;-48
2024/02/08 05:21:12;;;;;;;18.33;8.48;;;5.60;99.90;;;;;;5107337;28;20019;-46
2024/02/08 05:23:41;;;;;;;14.20;6.28;;;5.50;99.90;;;;;;5107329;28;20031;-48
2024/02/08 05:26:09;;;;;;;14.38;6.72;;;5.60;99.90;;;;;;5106731;28;20077;-46
2024/02/08 05:28:38;;;;;;;13.10;7.05;;;5.60;99.90;;;;;;5107165;28;20296;-47
2024/02/08 05:31:08;;;;;;;13.82;6.57;;;5.60;99.90;;;;;;5106939;28;20047;-46
2024/02/08 05:33:33;;;;;;;;;;;5.60;99.90;;;;;;5107185;28;20081;-46
2024/02/08 05:36:00;;;;;;;16.25;6.40;;;5.60;99.90;;;;;;5105779;28;19912;-46
2024/02/08 05:38:26;;;;;;;14.65;6.20;;;5.70;99.90;;;;;;5106933;28;20182;-45
2024/02/08 05:40:52;;;;;;;12.07;6.18;;;5.60;99.90;;;;;;5106520;28;20034;-46
2024/02/08 05:43:27;;;;;;;15.93;6.65;;;5.60;99.90;;;;;;5105619;28;20030;-45
2024/02/08 05:45:54;;;;;;;13.07;5.93;;;5.60;99.90;;;;;;5106696;28;20024;-46
2024/02/08 05:48:19;;;;;;;13.88;6.40;;;5.50;99.90;;;;;;5106705;28;20028;-46
2024/02/08 05:50:45;;;;;;;13.00;5.68;;;5.50;99.90;;;;;;5106815;28;20066;-48
2024/02/08 05:53:15;;;;;;;13.57;5.88;;;5.50;99.90;;;;;;5105668;28;20019;-47
2024/02/08 05:55:47;;;;;;;9.68;5.15;;;5.50;99.90;;;;;;5106572;28;20051;-47
2024/02/08 05:58:19;;;;;;;11.40;5.07;;;5.50;99.90;;;;;;5106553;28;20210;-48
2024/02/08 06:01:05;;;;;;;15.98;5.10;;;5.50;99.90;;;;;;5104641;28;20024;-46
2024/02/08 06:03:37;;;;;;;12.80;5.05;;;5.50;99.90;;;;;;5106383;28;20081;-47
2024/02/08 06:06:06;;;;;;;7.88;4.35;;;5.50;99.90;;;;;;5106360;28;20082;-46
2024/02/08 06:08:42;;;;;;;9.35;4.18;;;5.50;99.90;;;;;;5106215;28;20330;-48
2024/02/08 06:11:16;;;;;;;8.88;3.53;;;5.50;99.90;;;;;;5105890;28;20104;-46
2024/02/08 06:13:55;;;;;;;6.30;3.60;;;5.50;99.90;;;;;;5106291;28;20024;-47
2024/02/08 06:16:27;;;;;;;6.90;3.40;;;5.50;99.90;;;;;;5104921;28;20043;-46
2024/02/08 06:19:02;;;;;;;7.95;3.30;;;5.50;99.90;;;;;;5106004;28;20088;-46
2024/02/08 06:21:40;;;;;;;7.90;3.58;;;5.50;99.90;;;;;;5106009;28;20028;-47
2024/02/08 06:27:13;;;;;;;6.35;3.38;;;5.60;99.90;;;;;;5106148;28;20048;-46
2024/02/08 06:29:42;;;;;;;7.18;3.60;;;5.70;99.90;;;;;;5106086;28;20279;-47
2024/02/08 06:32:23;;;;;;;3.03;1.97;;;5.60;99.90;;;;;;5106017;28;20272;-46
2024/02/08 06:35:06;;;;;;;6.55;3.25;;;5.60;99.90;;;;;;5105690;28;20028;-46
2024/02/08 06:37:44;;;;;;;8.05;3.85;;;5.70;99.90;;;;;;5105493;28;20073;-46
2024/02/08 06:40:24;;;;;;;3.55;2.30;;;5.60;99.90;;;;;;5105838;28;20012;-46
2024/02/08 07:37:42;;;;;;;5.90;3.42;;;5.00;99.90;;;;;;5104903;28;20112;-49
2024/02/08 07:40:23;;;;;;;8.32;3.85;;;5.10;99.90;;;;;;5104969;28;20027;-49
2024/02/08 07:43:16;;;;;;;4.93;3.13;;;5.00;99.90;;;;;;5104986;28;20186;-46
2024/02/08 07:45:46;;;;;;;6.60;3.10;;;5.00;99.90;;;;;;5104045;28;20328;-47
2024/02/08 07:48:13;;;;;;;7.53;3.60;;;4.90;99.90;;;;;;5104829;28;20167;-48
2024/02/08 07:50:44;;;;;;;5.90;2.50;;;4.90;99.90;;;;;;5103626;28;20020;-49
2024/02/08 07:53:28;;;;;;;4.90;2.83;;;5.00;99.90;;;;;;5104785;28;20013;-46
2024/02/08 07:55:57;;;;;;;4.30;2.33;;;5.00;99.90;;;;;;5103794;28;20043;-45
2024/02/08 07:58:27;;;;;;;6.70;2.47;;;4.90;99.90;;;;;;5105218;28;20296;-48
2024/02/08 08:00:56;;;;;;;5.95;2.42;;;5.00;99.90;;;;;;5104633;28;20277;-46
2024/02/08 08:03:24;;;;;;;5.13;2.47;;;4.90;99.90;;;;;;5104319;28;20066;-47
2024/02/08 08:05:56;;;;;;;3.75;1.83;;;5.00;99.90;;;;;;5103320;28;20028;-45
2024/02/08 08:08:25;;;;;;;2.95;1.48;;;5.00;99.90;;;;;;5104536;28;20028;-48
2024/02/08 08:10:57;;;;;;;6.10;1.90;;;5.00;99.90;;;;;;5104456;28;20028;-49
2024/02/08 08:19:09;;;;;;;2.25;1.17;;;5.00;99.90;;;;;;5104740;28;20036;-49
2024/02/08 08:24:28;;;;;;;3.15;1.15;;;5.10;99.90;;;;;;5106357;28;20043;-47
2024/02/08 08:29:43;;;;;;;5.20;1.25;;;5.00;99.90;;;;;;5108587;28;20050;-48
2024/02/08 08:37:44;;;;;;;2.88;1.05;;;5.00;99.90;;;;;;5107749;28;20040;-46
2024/02/08 08:40:23;;;;;;;3.25;1.33;;;5.00;99.90;;;;;;5107834;28;20028;-46
2024/02/08 08:42:54;;;;;;;3.93;1.10;;;5.00;99.90;;;;;;5106701;28;20039;-46
2024/02/08 08:45:20;;;;;;;2.92;1.17;;;5.00;99.90;;;;;;5107596;28;20264;-46
2024/02/08 08:47:51;;;;;;;2.78;1.30;;;5.00;99.90;;;;;;5107244;28;20039;-46
2024/02/08 08:50:20;;;;;;;2.08;1.25;;;5.00;99.90;;;;;;5108400;28;20045;-47
2024/02/08 08:52:47;;;;;;;2.88;1.17;;;5.00;99.90;;;;;;5107572;28;20088;-48
2024/02/08 08:55:17;;;;;;;3.03;1.20;;;5.00;99.90;;;;;;5107439;28;20023;-46
2024/02/08 08:57:44;;;;;;;0.93;0.80;;;5.00;99.90;;;;;;5107580;28;20066;-48
2024/02/08 09:00:19;;;;;;;2.63;0.98;;;5.00;99.90;;;;;;5107575;28;20027;-46
2024/02/08 09:02:50;;;;;;;1.77;0.82;;;5.00;99.90;;;;;;5106849;28;20027;-48
2024/02/08 09:05:30;;;;;;;2.33;1.00;;;5.00;99.90;;;;;;5106956;28;20077;-46
2024/02/08 09:07:59;;;;;;;3.20;1.13;;;5.00;99.90;;;;;;5107127;28;20034;-47
2024/02/08 09:10:26;;;;;;;3.90;1.47;;;5.00;99.90;;;;;;5107136;28;20042;-48
2024/02/08 09:13:06;;;;;;;0.60;0.60;;;5.00;99.90;;;;;;5105877;28;20112;-46
2024/02/08 09:15:41;;;;;;;1.67;0.90;;;5.00;99.90;;;;;;5107023;28;20023;-48
2024/02/08 09:18:13;;;;;;;2.75;1.40;;;5.00;99.90;;;;;;5106942;28;20111;-48
2024/02/08 09:20:39;;;;;;;2.78;1.20;;;4.90;99.90;;;;;;5107074;28;20016;-49
2024/02/08 09:23:15;;;;;;;2.33;1.13;;;4.90;99.90;;;;;;5106687;28;20143;-49
2024/02/08 09:25:44;;;;;;;2.42;0.80;;;4.90;99.90;;;;;;5106543;28;20270;-47
2024/02/08 09:28:35;;;;;;;3.20;0.90;;;4.90;99.90;;;;;;5107023;28;20074;-48
2024/02/08 09:31:12;;;;;;;1.98;1.25;;;4.90;99.90;;;;;;5106950;28;20070;-47
2024/02/08 09:33:44;;;;;;;3.10;1.13;;;4.90;99.90;;;;;;5106737;28;20028;-47
2024/02/08 09:36:14;;;;;;;2.45;1.02;;;5.00;99.90;;;;;;5106706;28;20020;-45
2024/02/08 09:38:43;;;;;;;2.38;1.08;;;5.00;99.90;;;;;;5106966;28;20021;-48
2024/02/08 09:41:24;;;;;;;1.15;0.90;;;5.10;99.90;;;;;;5106133;28;20039;-47
2024/02/08 09:43:56;;;;;;;2.65;1.00;;;5.20;99.90;;;;;;5105371;28;20081;-45
2024/02/08 09:46:49;;;;;;;4.03;1.95;;;5.10;99.90;;;;;;5105242;28;20024;-45
2024/02/08 09:49:13;;;;;;;2.30;1.13;;;5.10;99.90;;;;;;5106136;28;20043;-46
2024/02/08 09:51:52;;;;;;;4.15;1.00;;;5.10;99.90;;;;;;5105183;28;20110;-46
2024/02/08 09:54:29;;;;;;;2.95;1.42;;;5.10;99.90;;;;;;5106211;28;20036;-47
2024/02/08 09:57:23;;;;;;;4.45;1.42;;;5.10;99.90;;;;;;5104730;28;20059;-47
2024/02/08 10:00:06;;;;;;;5.25;1.90;;;5.10;99.90;;;;;;5105237;28;20194;-48
2024/02/08 10:02:37;;;;;;;3.17;1.30;;;5.00;99.90;;;;;;5090070;28;20019;-47
2024/02/08 10:08:05;;;;;;;3.53;1.35;;;4.90;99.90;;;;;;5106138;28;20035;-46
2024/02/08 10:10:43;;;;;;;1.85;1.10;;;4.90;99.90;;;;;;5106091;28;20035;-47
2024/02/08 10:14:02;;;;;;;2.80;1.35;;;4.80;99.90;;;;;;5105984;28;20023;-47
2024/02/08 10:16:12;;;;;;;4.10;1.45;;;4.90;99.90;;;;;;5094778;28;20048;-47
2024/02/08 10:18:38;;;;;;;4.07;1.25;;;4.90;99.90;;;;;;5105718;28;20046;-48
2024/02/08 10:21:13;;;;;;;4.97;1.35;;;4.90;99.90;;;;;;5105818;28;20036;-46
2024/02/08 10:23:59;;;;;;;2.75;1.70;;;5.00;99.90;;;;;;5104712;28;20020;-46
2024/02/08 10:26:38;;;;;;;3.40;1.20;;;5.00;99.90;;;;;;5105712;28;20062;-47
2024/02/08 10:29:07;;;;;;;5.50;3.00;;;5.00;99.90;;;;;;5105440;28;20265;-46
2024/02/08 10:31:37;;;;;;;1.98;1.02;;;5.00;99.90;;;;;;5105863;28;20028;-46
2024/02/08 10:34:08;;;;;;;5.05;2.15;;;5.00;99.90;;;;;;5105813;28;20028;-46
2024/02/08 10:36:39;;;;;;;3.33;1.40;;;5.00;99.90;;;;;;5105873;28;20059;-47
2024/02/08 10:39:08;;;;;;;2.45;1.17;;;5.10;99.90;;;;;;5105780;28;20035;-47
2024/02/08 10:44:05;;;;;;;2.75;1.17;;;5.10;99.90;;;;;;5105411;28;20278;-46
2024/02/08 10:46:33;;;;;;;2.65;1.85;;;5.10;99.90;;;;;;5104886;28;20035;-47
2024/02/08 10:49:08;;;;;;;2.47;1.20;;;5.10;99.90;;;;;;5104469;28;20051;-51
2024/02/08 10:51:35;;;;;;;2.75;1.70;;;5.10;99.90;;;;;;5105165;28;20028;-47
2024/02/08 10:54:05;;;;;;;4.40;1.38;;;5.10;99.90;;;;;;5104314;28;20103;-46
2024/02/08 10:56:41;;;;;;;5.00;1.33;;;5.10;99.90;;;;;;5105329;28;20053;-45
2024/02/08 10:59:39;;;;;;;4.75;1.10;;;5.00;99.90;;;;;;5104529;28;20248;-49
2024/02/08 11:02:08;;;;;;;3.45;1.00;;;4.90;99.90;;;;;;5105139;28;20050;-46
2024/02/08 11:04:40;;;;;;;1.10;0.80;;;5.00;99.90;;;;;;5088457;28;20031;-46
2024/02/08 11:07:08;;;;;;;4.22;1.45;;;5.00;99.90;;;;;;5104312;28;20035;-46
2024/02/08 11:09:34;;;;;;;2.38;1.38;;;4.90;99.90;;;;;;5103882;28;20290;-48
2024/02/08 11:12:05;;;;;;;2.97;1.20;;;4.80;99.90;;;;;;5104418;28;20343;-47
2024/02/08 11:14:40;;;;;;;2.28;1.20;;;4.80;99.90;;;;;;5103059;28;20063;-46
2024/02/08 11:17:26;;;;;;;2.88;1.20;;;4.70;99.90;;;;;;5103587;28;20048;-47
2024/02/08 11:19:59;;;;;;;2.67;0.98;;;4.70;99.90;;;;;;5103610;28;20095;-48
2024/02/08 11:22:34;;;;;;;2.78;0.98;;;4.70;99.90;;;;;;5104932;28;20042;-46
2024/02/08 11:25:19;;;;;;;4.93;1.63;;;4.70;99.90;;;;;;5103691;28;20031;-46
2024/02/08 11:27:51;;;;;;;2.67;1.10;;;4.70;99.90;;;;;;5103962;28;20103;-51
2024/02/08 11:30:33;;;;;;;2.85;1.25;;;4.80;99.90;;;;;;5103828;28;20024;-46
2024/02/08 11:33:03;;;;;;;2.80;1.08;;;4.80;99.90;;;;;;5104982;28;20270;-49
2024/02/08 11:35:30;;;;;;;;;;;4.90;99.90;;;;;;5105059;28;20032;-47
2024/02/08 11:37:56;;;;;;;2.88;1.13;;;4.90;99.90;;;;;;5103353;28;19919;-47
2024/02/08 11:40:36;;;;;;;2.75;1.25;;;4.90;99.90;;;;;;5103699;28;20028;-46
2024/02/08 11:43:07;;;;;;;4.05;1.35;;;4.80;99.90;;;;;;5104510;28;20024;-46
2024/02/08 11:45:36;;;;;;;3.30;1.40;;;4.80;99.90;;;;;;5104493;28;20097;-46
2024/02/08 11:48:05;;;;;;;4.30;1.58;;;4.70;99.90;;;;;;5103314;28;20039;-45
2024/02/08 11:50:36;;;;;;;4.18;1.25;;;4.70;99.90;;;;;;5103531;28;20031;-47
2024/02/08 11:53:04;;;;;;;2.83;1.13;;;4.70;99.90;;;;;;5104441;28;20159;-47
2024/02/08 11:55:32;;;;;;;4.40;1.25;;;4.70;99.90;;;;;;5104912;28;20036;-46
2024/02/08 11:57:57;;;;;;;2.53;1.40;;;4.70;99.90;;;;;;5103472;28;20028;-47
2024/02/08 12:00:24;;;;;;;2.53;1.30;;;4.70;99.90;;;;;;5107038;28;20255;-46
2024/02/08 12:03:01;;;;;;;5.38;1.27;;;4.70;99.90;;;;;;5107239;28;20328;-47
2024/02/08 12:05:28;;;;;;;2.95;1.23;;;4.80;99.90;;;;;;5108408;28;20104;-49
2024/02/08 12:08:08;;;;;;;4.15;1.42;;;4.80;99.90;;;;;;5109055;28;20140;-46
2024/02/08 12:10:33;;;;;;;3.83;1.30;;;4.80;99.90;;;;;;5107445;28;20091;-50
2024/02/08 12:13:00;;;;;;;1.88;1.10;;;4.80;99.90;;;;;;5108445;28;20070;-46
2024/02/08 12:15:26;;;;;;;2.53;1.05;;;4.80;99.90;;;;;;5108369;28;20027;-46
2024/02/08 12:18:09;;;;;;;2.92;1.23;;;4.80;99.90;;;;;;5108166;28;20039;-47
2024/02/08 12:20:36;;;;;;;3.00;1.40;;;4.80;99.90;;;;;;5108284;28;20024;-47
2024/02/08 12:23:02;;;;;;;2.05;1.20;;;4.80;99.90;;;;;;5107227;28;20297;-48
2024/02/08 12:25:30;;;;;;;4.05;1.20;;;4.90;99.90;;;;;;5107640;28;20029;-49
2024/02/08 12:27:58;;;;;;;1.85;1.10;;;4.90;99.90;;;;;;5108183;28;20083;-49
2024/02/08 12:30:33;;;;;;;1.20;1.10;;;4.90;99.90;;;;;;5107923;28;20305;-46
2024/02/08 12:33:07;;;;;;;2.67;1.10;;;4.90;99.90;;;;;;5107060;28;20036;-46
2024/02/08 12:35:35;;;;;;;1.63;1.00;;;5.00;99.90;;;;;;5106614;28;20028;-45
2024/02/08 12:38:01;;;;;;;2.92;1.00;;;5.00;99.90;;;;;;5106687;28;20095;-46
2024/02/08 12:40:32;;;;;;;2.10;1.02;;;5.10;99.90;;;;;;5108083;28;20032;-46
2024/02/08 12:43:01;;;;;;;3.70;1.45;;;5.10;99.90;;;;;;5106726;28;20024;-47
2024/02/08 12:45:31;;;;;;;3.15;1.70;;;5.20;99.90;;;;;;5107728;28;20061;-47
2024/02/08 12:47:57;;;;;;;6.90;1.90;;;5.30;99.90;;;;;;5106294;28;20196;-46
2024/02/08 12:50:24;;;;;;;4.60;1.88;;;5.30;99.90;;;;;;5089803;28;20269;-48
2024/02/08 12:52:54;;;;;;;3.20;2.13;;;5.30;99.90;;;;;;5107466;28;20045;-46
2024/02/08 12:55:24;;;;;;;8.35;3.75;;;5.30;99.90;;;;;;5106367;28;20081;-47
2024/02/08 12:58:01;;;;;;;5.40;2.03;;;5.40;99.90;;;;;;5107000;28;20044;-47
2024/02/08 13:00:33;;;;;;;7.53;3.17;;;5.40;99.90;;;;;;5106186;28;20031;-46
2024/02/08 13:03:05;;;;;;;3.55;2.13;;;5.40;99.90;;;;;;5107223;28;20047;-48
2024/02/08 13:05:44;;;;;;;3.40;1.88;;;5.40;99.90;;;;;;5107184;28;20049;-45
2024/02/08 13:08:16;;;;;;;2.80;1.55;;;5.40;99.90;;;;;;5107365;28;20043;-47
2024/02/08 13:10:42;;;;;;;3.65;1.90;;;5.50;99.90;;;;;;5105922;28;20328;-47
2024/02/08 13:13:10;;;;;;;3.00;1.60;;;5.60;99.90;;;;;;5106025;28;20036;-48
2024/02/08 13:15:36;;;;;;;4.00;1.40;;;5.60;99.90;;;;;;5106058;28;20036;-49
2024/02/08 13:18:02;;;;;;;2.92;1.77;;;5.60;99.90;;;;;;5106677;28;20047;-47
2024/02/08 13:20:28;;;;;;;3.63;2.05;;;5.60;99.90;;;;;;5106156;28;20151;-49
2024/02/08 13:22:55;;;;;;;4.47;2.20;;;5.60;99.90;;;;;;5106816;28;20274;-45
2024/02/08 13:25:22;;;;;;;3.22;1.65;;;5.70;99.90;;;;;;5106764;28;20282;-46
2024/02/08 13:27:50;;;;;;;2.60;1.38;;;5.60;99.90;;;;;;5106494;28;20096;-45
2024/02/08 13:30:16;;;;;;;1.75;1.20;;;5.70;99.90;;;;;;5107087;28;20040;-46
2024/02/08 13:32:51;;;;;;;4.07;1.48;;;5.60;99.90;;;;;;5106481;28;20335;-48
2024/02/08 13:35:20;;;;;;;2.08;1.30;;;5.70;99.90;;;;;;5106885;28;20038;-48
2024/02/08 13:37:50;;;;;;;2.55;1.50;;;5.70;99.90;;;;;;5106689;28;20047;-46
2024/02/08 13:40:18;;;;;;;;;;;5.70;99.90;;;;;;5107371;28;20178;-47
2024/02/08 13:42:45;;;;;;;1.92;1.23;;;5.70;99.90;;;;;;5106422;28;19979;-49
2024/02/08 13:45:12;;;;;;;3.38;1.40;;;5.70;99.90;;;;;;5105457;28;20040;-46
2024/02/08 13:47:37;;;;;;;3.28;1.40;;;5.70;99.90;;;;;;5105133;28;20028;-46
2024/02/08 13:50:10;;;;;;;7.13;2.25;;;5.70;99.90;;;;;;5106579;28;20042;-49
2024/02/08 13:52:37;;;;;;;8.27;3.75;;;5.80;99.90;;;;;;5106576;28;20043;-48
2024/02/08 13:55:07;;;;;;;9.05;5.10;;;5.80;99.90;;;;;;5105376;28;20020;-49
2024/02/08 13:57:33;;;;;;;;;;;5.70;99.90;;;;;;5106520;28;20028;-47
2024/02/08 14:00:03;;;;;;;4.90;2.38;;;5.80;99.90;;;;;;5106396;28;20118;-49
2024/02/08 14:02:32;;;;;;;3.97;2.30;;;5.80;99.90;;;;;;5106170;28;20027;-49
2024/02/08 14:05:04;;;;;;;5.65;2.72;;;5.90;99.90;;;;;;5105247;28;20028;-48
2024/02/08 14:07:30;;;;;;;4.60;2.50;;;5.90;99.90;;;;;;5106113;28;20063;-49
2024/02/08 14:09:59;;;;;;;3.53;2.65;;;5.90;99.90;;;;;;5106467;28;20085;-49
2024/02/08 14:12:28;;;;;;;4.03;2.08;;;5.90;99.90;;;;;;5105961;28;20066;-49
2024/02/08 14:14:54;;;;;;;2.63;1.83;;;5.90;99.90;;;;;;5106002;28;20056;-49
2024/02/08 14:17:27;;;;;;;3.88;2.05;;;6.00;99.90;;;;;;5105699;28;20055;-48
2024/02/08 14:19:55;;;;;;;2.58;1.20;;;6.00;99.90;;;;;;5105053;28;20028;-45
2024/02/08 14:22:23;;;;;;;3.90;1.60;;;6.10;99.90;;;;;;5104257;28;20019;-46
2024/02/08 14:24:53;;;;;;;2.80;1.60;;;6.10;99.90;;;;;;5105402;28;20253;-47
2024/02/08 14:27:19;;;;;;;2.47;1.50;;;6.20;99.90;;;;;;5104807;28;20028;-48
2024/02/08 14:29:48;;;;;;;4.53;1.73;;;6.20;99.90;;;;;;5105525;28;20067;-47
2024/02/08 14:32:13;;;;;;;5.38;2.53;;;6.20;99.90;;;;;;5105841;28;20036;-47
2024/02/08 14:34:40;;;;;;;3.95;1.60;;;6.30;99.90;;;;;;5104907;28;20186;-46
2024/02/08 14:37:06;;;;;;;8.55;3.80;;;6.30;99.90;;;;;;5105259;28;20054;-46
2024/02/08 14:39:35;;;;;;;2.05;1.58;;;6.40;99.90;;;;;;5105543;28;20055;-49
2024/02/08 14:42:11;;;;;;;7.22;2.85;;;6.40;99.90;;;;;;5104434;28;20038;-51
2024/02/08 14:44:51;;;;;;;4.35;2.45;;;6.40;99.90;;;;;;5105278;28;20183;-51
2024/02/08 14:47:31;;;;;;;3.55;2.28;;;6.50;99.90;;;;;;5104414;28;20194;-48
2024/02/08 14:49:59;;;;;;;5.07;3.33;;;6.50;99.90;;;;;;5104663;28;20028;-49
2024/02/08 14:52:26;;;;;;;3.92;2.30;;;6.60;99.90;;;;;;5105218;28;20232;-48
2024/02/08 14:54:58;;;;;;;3.58;1.80;;;6.70;99.90;;;;;;5105009;28;20274;-47
2024/02/08 14:57:38;;;;;;;8.80;1.83;;;6.70;99.90;;;;;;5104934;28;20057;-50
2024/02/08 15:02:55;;;;;;;4.28;2.28;;;6.70;99.90;;;;;;5104928;28;19952;-49
2024/02/08 15:08:29;;;;;;;8.88;4.28;;;6.60;99.90;;;;;;5105178;28;20043;-50
2024/02/08 15:11:09;;;;;;;8.57;3.83;;;6.60;99.90;;;;;;5104666;28;20079;-50
2024/02/08 15:13:49;;;;;;;4.05;2.40;;;6.60;99.90;;;;;;5104944;28;20028;-50
2024/02/08 15:16:21;;;;;;;6.00;2.55;;;6.70;99.90;;;;;;5104905;28;20310;-49
2024/02/08 15:18:53;;;;;;;4.65;2.25;;;6.70;99.90;;;;;;5104857;28;20074;-47